sensor_id;sensor_type;location;lat;lon;timestamp;P1;durP1;ratioP1;P2;durP2;ratioP2
2458;SDS011;1241;50.920;6.936;2022-11-06T00:02:15;19.43;;;16.13;;
2458;SDS011;1241;50.920;6.936;2022-11-06T00:04:41;21.50;;;17.03;;
2458;SDS011;1241;50.920;6.936;2022-11-06T00:07:07;26.17;;;18.67;;
2458;SDS011;1241;50.920;6.936;2022-11-06T00:09:32;78.80;;;50.30;;
2458;SDS011;1241;50.920;6.936;2022-11-06T00:11:58;28.23;;;22.13;;
2458;SDS011;1241;50.920;6.936;2022-11-06T00:14:24;29.00;;;20.67;;
2458;SDS011;1241;50.920;6.936;2022-11-06T00:16:50;13.30;;;11.93;;
2458;SDS011;1241;50.920;6.936;2022-11-06T00:19:16;32.30;;;19.70;;
2458;SDS011;1241;50.920;6.936;2022-11-06T00:21:42;28.20;;;20.48;;
2458;SDS011;1241;50.920;6.936;2022-11-06T00:24:09;22.17;;;15.30;;
2458;SDS011;1241;50.920;6.936;2022-11-06T00:26:36;23.08;;;16.30;;
2458;SDS011;1241;50.920;6.936;2022-11-06T00:29:02;25.33;;;19.40;;
2458;SDS011;1241;50.920;6.936;2022-11-06T00:31:30;30.40;;;22.55;;
2458;SDS011;1241;50.920;6.936;2022-11-06T00:33:58;20.33;;;15.15;;
2458;SDS011;1241;50.920;6.936;2022-11-06T00:36:25;39.63;;;25.85;;
2458;SDS011;1241;50.920;6.936;2022-11-06T00:38:54;22.13;;;16.75;;
2458;SDS011;1241;50.920;6.936;2022-11-06T00:41:21;17.98;;;13.25;;
2458;SDS011;1241;50.920;6.936;2022-11-06T00:43:51;19.95;;;13.50;;
2458;SDS011;1241;50.920;6.936;2022-11-06T00:46:19;27.17;;;19.92;;
2458;SDS011;1241;50.920;6.936;2022-11-06T00:48:45;22.70;;;15.35;;
2458;SDS011;1241;50.920;6.936;2022-11-06T00:51:15;34.00;;;22.60;;
2458;SDS011;1241;50.920;6.936;2022-11-06T00:53:46;18.42;;;13.57;;
2458;SDS011;1241;50.920;6.936;2022-11-06T00:56:16;28.77;;;21.55;;
2458;SDS011;1241;50.920;6.936;2022-11-06T00:58:43;27.55;;;17.45;;
2458;SDS011;1241;50.920;6.936;2022-11-06T01:01:11;20.15;;;15.70;;
2458;SDS011;1241;50.920;6.936;2022-11-06T01:03:39;28.27;;;19.38;;
2458;SDS011;1241;50.920;6.936;2022-11-06T01:06:07;30.08;;;21.13;;
2458;SDS011;1241;50.920;6.936;2022-11-06T01:08:37;28.23;;;22.15;;
2458;SDS011;1241;50.920;6.936;2022-11-06T01:11:04;29.50;;;20.65;;
2458;SDS011;1241;50.920;6.936;2022-11-06T01:13:34;23.88;;;17.27;;
2458;SDS011;1241;50.920;6.936;2022-11-06T01:16:00;25.42;;;16.90;;
2458;SDS011;1241;50.920;6.936;2022-11-06T01:18:28;24.23;;;18.15;;
2458;SDS011;1241;50.920;6.936;2022-11-06T01:20:54;18.23;;;13.43;;
2458;SDS011;1241;50.920;6.936;2022-11-06T01:23:19;29.70;;;19.60;;
2458;SDS011;1241;50.920;6.936;2022-11-06T01:25:54;15.47;;;11.40;;
2458;SDS011;1241;50.920;6.936;2022-11-06T01:28:24;25.92;;;17.90;;
2458;SDS011;1241;50.920;6.936;2022-11-06T01:30:50;23.27;;;17.15;;
2458;SDS011;1241;50.920;6.936;2022-11-06T01:33:16;21.60;;;13.70;;
2458;SDS011;1241;50.920;6.936;2022-11-06T01:35:46;14.20;;;9.80;;
2458;SDS011;1241;50.920;6.936;2022-11-06T01:38:12;16.73;;;10.60;;
2458;SDS011;1241;50.920;6.936;2022-11-06T01:40:39;19.60;;;13.23;;
2458;SDS011;1241;50.920;6.936;2022-11-06T01:43:14;16.40;;;11.70;;
2458;SDS011;1241;50.920;6.936;2022-11-06T01:45:54;17.83;;;11.60;;
2458;SDS011;1241;50.920;6.936;2022-11-06T01:48:24;15.25;;;11.38;;
2458;SDS011;1241;50.920;6.936;2022-11-06T01:50:53;19.70;;;14.70;;
2458;SDS011;1241;50.920;6.936;2022-11-06T01:53:21;13.85;;;10.05;;
2458;SDS011;1241;50.920;6.936;2022-11-06T01:55:51;14.88;;;11.15;;
2458;SDS011;1241;50.920;6.936;2022-11-06T01:58:20;15.63;;;10.27;;
2458;SDS011;1241;50.920;6.936;2022-11-06T02:00:48;14.18;;;9.38;;
2458;SDS011;1241;50.920;6.936;2022-11-06T02:03:14;15.50;;;11.15;;
2458;SDS011;1241;50.920;6.936;2022-11-06T02:05:41;14.95;;;10.30;;
2458;SDS011;1241;50.920;6.936;2022-11-06T02:08:08;14.10;;;10.17;;
2458;SDS011;1241;50.920;6.936;2022-11-06T02:10:36;16.80;;;9.85;;
2458;SDS011;1241;50.920;6.936;2022-11-06T02:13:08;11.00;;;9.52;;
2458;SDS011;1241;50.920;6.936;2022-11-06T02:23:54;18.17;;;11.75;;
2458;SDS011;1241;50.920;6.936;2022-11-06T02:29:21;40.20;;;18.27;;
2458;SDS011;1241;50.920;6.936;2022-11-06T02:31:58;21.98;;;14.88;;
2458;SDS011;1241;50.920;6.936;2022-11-06T02:34:30;20.50;;;11.07;;
2458;SDS011;1241;50.920;6.936;2022-11-06T02:37:00;17.90;;;12.40;;
2458;SDS011;1241;50.920;6.936;2022-11-06T02:39:31;14.35;;;8.15;;
2458;SDS011;1241;50.920;6.936;2022-11-06T02:42:00;19.02;;;13.00;;
2458;SDS011;1241;50.920;6.936;2022-11-06T02:44:29;33.80;;;23.23;;
2458;SDS011;1241;50.920;6.936;2022-11-06T02:46:57;13.40;;;9.90;;
2458;SDS011;1241;50.920;6.936;2022-11-06T02:52:09;13.88;;;10.80;;
2458;SDS011;1241;50.920;6.936;2022-11-06T02:54:40;10.13;;;7.93;;
2458;SDS011;1241;50.920;6.936;2022-11-06T02:57:10;11.50;;;8.68;;
2458;SDS011;1241;50.920;6.936;2022-11-06T02:59:44;12.73;;;8.80;;
2458;SDS011;1241;50.920;6.936;2022-11-06T03:02:14;20.90;;;12.07;;
2458;SDS011;1241;50.920;6.936;2022-11-06T03:04:49;15.98;;;10.35;;
2458;SDS011;1241;50.920;6.936;2022-11-06T03:07:21;9.48;;;7.38;;
2458;SDS011;1241;50.920;6.936;2022-11-06T03:09:52;15.05;;;11.38;;
2458;SDS011;1241;50.920;6.936;2022-11-06T03:17:42;17.27;;;12.27;;
2458;SDS011;1241;50.920;6.936;2022-11-06T03:25:24;13.65;;;11.02;;
2458;SDS011;1241;50.920;6.936;2022-11-06T03:28:04;13.88;;;10.48;;
2458;SDS011;1241;50.920;6.936;2022-11-06T03:30:32;15.20;;;8.73;;
2458;SDS011;1241;50.920;6.936;2022-11-06T03:33:05;19.33;;;11.73;;
2458;SDS011;1241;50.920;6.936;2022-11-06T03:35:56;15.38;;;9.43;;
2458;SDS011;1241;50.920;6.936;2022-11-06T03:38:33;11.73;;;7.78;;
2458;SDS011;1241;50.920;6.936;2022-11-06T03:41:07;16.60;;;10.93;;
2458;SDS011;1241;50.920;6.936;2022-11-06T03:43:42;17.10;;;12.68;;
2458;SDS011;1241;50.920;6.936;2022-11-06T03:46:10;13.80;;;9.25;;
2458;SDS011;1241;50.920;6.936;2022-11-06T03:48:41;16.00;;;10.82;;
2458;SDS011;1241;50.920;6.936;2022-11-06T03:51:21;17.83;;;9.55;;
2458;SDS011;1241;50.920;6.936;2022-11-06T03:54:01;23.95;;;18.45;;
2458;SDS011;1241;50.920;6.936;2022-11-06T03:56:39;14.75;;;8.73;;
2458;SDS011;1241;50.920;6.936;2022-11-06T03:59:15;9.55;;;6.72;;
2458;SDS011;1241;50.920;6.936;2022-11-06T04:01:47;14.52;;;7.80;;
2458;SDS011;1241;50.920;6.936;2022-11-06T04:04:18;20.42;;;10.65;;
2458;SDS011;1241;50.920;6.936;2022-11-06T04:06:59;9.77;;;6.47;;
2458;SDS011;1241;50.920;6.936;2022-11-06T04:09:27;16.77;;;10.63;;
2458;SDS011;1241;50.920;6.936;2022-11-06T04:12:14;8.32;;;7.03;;
2458;SDS011;1241;50.920;6.936;2022-11-06T04:15:03;13.27;;;7.43;;
2458;SDS011;1241;50.920;6.936;2022-11-06T04:17:31;19.52;;;12.18;;
2458;SDS011;1241;50.920;6.936;2022-11-06T04:19:59;7.90;;;6.53;;
2458;SDS011;1241;50.920;6.936;2022-11-06T04:25:32;11.20;;;6.47;;
2458;SDS011;1241;50.920;6.936;2022-11-06T04:29:27;10.10;;;8.18;;
2458;SDS011;1241;50.920;6.936;2022-11-06T04:34:35;19.70;;;9.25;;
2458;SDS011;1241;50.920;6.936;2022-11-06T04:36:52;8.38;;;6.22;;
2458;SDS011;1241;50.920;6.936;2022-11-06T04:42:15;12.45;;;6.28;;
2458;SDS011;1241;50.920;6.936;2022-11-06T04:44:51;21.60;;;10.60;;
2458;SDS011;1241;50.920;6.936;2022-11-06T04:47:24;9.93;;;6.38;;
2458;SDS011;1241;50.920;6.936;2022-11-06T04:49:51;11.02;;;7.97;;
2458;SDS011;1241;50.920;6.936;2022-11-06T04:52:22;10.23;;;7.05;;
2458;SDS011;1241;50.920;6.936;2022-11-06T04:54:51;5.68;;;5.03;;
2458;SDS011;1241;50.920;6.936;2022-11-06T04:57:18;14.75;;;7.30;;
2458;SDS011;1241;50.920;6.936;2022-11-06T04:59:45;13.77;;;7.13;;
2458;SDS011;1241;50.920;6.936;2022-11-06T05:02:11;11.43;;;8.90;;
2458;SDS011;1241;50.920;6.936;2022-11-06T05:04:37;5.40;;;4.23;;
2458;SDS011;1241;50.920;6.936;2022-11-06T05:07:02;7.77;;;4.50;;
2458;SDS011;1241;50.920;6.936;2022-11-06T05:09:28;4.90;;;4.00;;
2458;SDS011;1241;50.920;6.936;2022-11-06T05:11:54;10.57;;;6.95;;
2458;SDS011;1241;50.920;6.936;2022-11-06T05:14:20;8.63;;;5.57;;
2458;SDS011;1241;50.920;6.936;2022-11-06T05:16:46;5.93;;;5.27;;
2458;SDS011;1241;50.920;6.936;2022-11-06T05:19:12;6.17;;;4.50;;
2458;SDS011;1241;50.920;6.936;2022-11-06T05:21:37;9.30;;;5.00;;
2458;SDS011;1241;50.920;6.936;2022-11-06T05:24:21;7.70;;;4.80;;
2458;SDS011;1241;50.920;6.936;2022-11-06T05:26:47;8.77;;;3.53;;
2458;SDS011;1241;50.920;6.936;2022-11-06T05:29:13;7.07;;;4.77;;
2458;SDS011;1241;50.920;6.936;2022-11-06T05:31:38;17.27;;;11.53;;
2458;SDS011;1241;50.920;6.936;2022-11-06T05:34:04;12.47;;;8.43;;
2458;SDS011;1241;50.920;6.936;2022-11-06T05:36:30;14.00;;;5.53;;
2458;SDS011;1241;50.920;6.936;2022-11-06T05:38:56;8.03;;;6.37;;
2458;SDS011;1241;50.920;6.936;2022-11-06T05:41:21;13.73;;;7.50;;
2458;SDS011;1241;50.920;6.936;2022-11-06T05:43:47;11.43;;;6.57;;
2458;SDS011;1241;50.920;6.936;2022-11-06T05:46:13;6.77;;;5.13;;
2458;SDS011;1241;50.920;6.936;2022-11-06T05:48:38;10.30;;;7.30;;
2458;SDS011;1241;50.920;6.936;2022-11-06T05:51:05;10.20;;;7.47;;
2458;SDS011;1241;50.920;6.936;2022-11-06T05:53:31;6.00;;;3.92;;
2458;SDS011;1241;50.920;6.936;2022-11-06T05:55:59;11.25;;;7.10;;
2458;SDS011;1241;50.920;6.936;2022-11-06T05:58:25;8.90;;;6.47;;
2458;SDS011;1241;50.920;6.936;2022-11-06T06:00:52;11.02;;;6.20;;
2458;SDS011;1241;50.920;6.936;2022-11-06T06:03:19;7.38;;;4.90;;
2458;SDS011;1241;50.920;6.936;2022-11-06T06:05:45;9.32;;;7.15;;
2458;SDS011;1241;50.920;6.936;2022-11-06T06:08:11;12.88;;;7.63;;
2458;SDS011;1241;50.920;6.936;2022-11-06T06:10:41;7.07;;;6.37;;
2458;SDS011;1241;50.920;6.936;2022-11-06T06:13:07;12.43;;;9.90;;
2458;SDS011;1241;50.920;6.936;2022-11-06T06:15:33;10.25;;;5.47;;
2458;SDS011;1241;50.920;6.936;2022-11-06T06:18:01;5.18;;;4.68;;
2458;SDS011;1241;50.920;6.936;2022-11-06T06:20:27;15.33;;;8.10;;
2458;SDS011;1241;50.920;6.936;2022-11-06T06:22:55;9.23;;;6.30;;
2458;SDS011;1241;50.920;6.936;2022-11-06T06:25:22;11.15;;;5.90;;
2458;SDS011;1241;50.920;6.936;2022-11-06T06:27:49;10.35;;;4.90;;
2458;SDS011;1241;50.920;6.936;2022-11-06T06:30:14;7.40;;;5.82;;
2458;SDS011;1241;50.920;6.936;2022-11-06T06:32:40;10.03;;;6.50;;
2458;SDS011;1241;50.920;6.936;2022-11-06T06:35:06;14.60;;;9.07;;
2458;SDS011;1241;50.920;6.936;2022-11-06T06:37:32;6.00;;;5.30;;
2458;SDS011;1241;50.920;6.936;2022-11-06T06:39:58;5.20;;;4.70;;
2458;SDS011;1241;50.920;6.936;2022-11-06T06:42:23;4.33;;;3.93;;
2458;SDS011;1241;50.920;6.936;2022-11-06T06:44:49;8.73;;;5.17;;
2458;SDS011;1241;50.920;6.936;2022-11-06T06:47:15;7.90;;;5.53;;
2458;SDS011;1241;50.920;6.936;2022-11-06T06:49:42;9.15;;;7.20;;
2458;SDS011;1241;50.920;6.936;2022-11-06T06:52:09;5.07;;;4.60;;
2458;SDS011;1241;50.920;6.936;2022-11-06T06:54:35;5.65;;;4.07;;
2458;SDS011;1241;50.920;6.936;2022-11-06T06:57:01;5.43;;;3.93;;
2458;SDS011;1241;50.920;6.936;2022-11-06T06:59:26;10.60;;;6.60;;
2458;SDS011;1241;50.920;6.936;2022-11-06T07:01:53;7.07;;;5.80;;
2458;SDS011;1241;50.920;6.936;2022-11-06T07:04:19;6.90;;;4.78;;
2458;SDS011;1241;50.920;6.936;2022-11-06T07:06:44;8.27;;;6.07;;
2458;SDS011;1241;50.920;6.936;2022-11-06T07:09:10;9.17;;;6.73;;
2458;SDS011;1241;50.920;6.936;2022-11-06T07:11:36;8.43;;;5.37;;
2458;SDS011;1241;50.920;6.936;2022-11-06T07:14:02;10.10;;;6.43;;
2458;SDS011;1241;50.920;6.936;2022-11-06T07:16:27;5.03;;;4.27;;
2458;SDS011;1241;50.920;6.936;2022-11-06T07:18:54;8.52;;;5.97;;
2458;SDS011;1241;50.920;6.936;2022-11-06T07:21:20;7.47;;;4.70;;
2458;SDS011;1241;50.920;6.936;2022-11-06T07:23:46;6.40;;;4.67;;
2458;SDS011;1241;50.920;6.936;2022-11-06T07:26:12;7.28;;;3.92;;
2458;SDS011;1241;50.920;6.936;2022-11-06T07:28:38;9.40;;;3.87;;
2458;SDS011;1241;50.920;6.936;2022-11-06T07:31:04;5.90;;;4.57;;
2458;SDS011;1241;50.920;6.936;2022-11-06T07:33:31;5.40;;;3.60;;
2458;SDS011;1241;50.920;6.936;2022-11-06T07:36:04;8.60;;;5.75;;
2458;SDS011;1241;50.920;6.936;2022-11-06T07:38:34;4.68;;;3.30;;
2458;SDS011;1241;50.920;6.936;2022-11-06T07:41:02;9.07;;;5.03;;
2458;SDS011;1241;50.920;6.936;2022-11-06T07:43:29;5.90;;;4.90;;
2458;SDS011;1241;50.920;6.936;2022-11-06T07:46:02;7.73;;;4.90;;
2458;SDS011;1241;50.920;6.936;2022-11-06T07:48:29;8.15;;;6.50;;
2458;SDS011;1241;50.920;6.936;2022-11-06T07:50:55;6.70;;;4.95;;
2458;SDS011;1241;50.920;6.936;2022-11-06T07:53:22;7.60;;;4.25;;
2458;SDS011;1241;50.920;6.936;2022-11-06T07:55:51;4.97;;;3.27;;
2458;SDS011;1241;50.920;6.936;2022-11-06T07:58:18;8.63;;;4.18;;
2458;SDS011;1241;50.920;6.936;2022-11-06T08:00:49;9.18;;;4.30;;
2458;SDS011;1241;50.920;6.936;2022-11-06T08:03:16;7.65;;;5.50;;
2458;SDS011;1241;50.920;6.936;2022-11-06T08:05:43;12.43;;;4.78;;
2458;SDS011;1241;50.920;6.936;2022-11-06T08:08:09;7.05;;;4.57;;
2458;SDS011;1241;50.920;6.936;2022-11-06T08:10:34;4.80;;;4.10;;
2458;SDS011;1241;50.920;6.936;2022-11-06T08:13:07;8.45;;;5.10;;
2458;SDS011;1241;50.920;6.936;2022-11-06T08:15:35;7.63;;;5.50;;
2458;SDS011;1241;50.920;6.936;2022-11-06T08:18:02;10.32;;;6.95;;
2458;SDS011;1241;50.920;6.936;2022-11-06T08:20:29;6.35;;;4.35;;
2458;SDS011;1241;50.920;6.936;2022-11-06T08:22:58;7.00;;;4.37;;
2458;SDS011;1241;50.920;6.936;2022-11-06T08:25:25;5.57;;;4.00;;
2458;SDS011;1241;50.920;6.936;2022-11-06T08:27:53;10.25;;;5.75;;
2458;SDS011;1241;50.920;6.936;2022-11-06T08:30:20;5.57;;;4.53;;
2458;SDS011;1241;50.920;6.936;2022-11-06T08:32:45;13.30;;;5.73;;
2458;SDS011;1241;50.920;6.936;2022-11-06T08:35:11;9.03;;;6.33;;
2458;SDS011;1241;50.920;6.936;2022-11-06T08:37:37;8.33;;;5.77;;
2458;SDS011;1241;50.920;6.936;2022-11-06T08:40:02;10.10;;;4.50;;
2458;SDS011;1241;50.920;6.936;2022-11-06T08:42:28;7.85;;;5.15;;
2458;SDS011;1241;50.920;6.936;2022-11-06T08:44:54;6.27;;;4.30;;
2458;SDS011;1241;50.920;6.936;2022-11-06T08:47:20;5.70;;;4.20;;
2458;SDS011;1241;50.920;6.936;2022-11-06T08:49:45;6.87;;;4.33;;
2458;SDS011;1241;50.920;6.936;2022-11-06T08:52:11;17.03;;;4.60;;
2458;SDS011;1241;50.920;6.936;2022-11-06T08:54:37;7.00;;;5.57;;
2458;SDS011;1241;50.920;6.936;2022-11-06T08:57:03;5.40;;;3.63;;
2458;SDS011;1241;50.920;6.936;2022-11-06T08:59:28;4.53;;;4.13;;
2458;SDS011;1241;50.920;6.936;2022-11-06T09:01:57;24.88;;;14.35;;
2458;SDS011;1241;50.920;6.936;2022-11-06T09:04:25;7.65;;;6.93;;
2458;SDS011;1241;50.920;6.936;2022-11-06T09:06:50;6.53;;;5.77;;
2458;SDS011;1241;50.920;6.936;2022-11-06T09:09:16;10.43;;;5.53;;
2458;SDS011;1241;50.920;6.936;2022-11-06T09:11:42;5.90;;;4.93;;
2458;SDS011;1241;50.920;6.936;2022-11-06T09:14:08;6.10;;;5.50;;
2458;SDS011;1241;50.920;6.936;2022-11-06T09:16:33;5.13;;;3.70;;
2458;SDS011;1241;50.920;6.936;2022-11-06T09:18:59;8.60;;;4.80;;
2458;SDS011;1241;50.920;6.936;2022-11-06T09:21:25;7.47;;;3.83;;
2458;SDS011;1241;50.920;6.936;2022-11-06T09:23:51;5.57;;;3.53;;
2458;SDS011;1241;50.920;6.936;2022-11-06T09:26:16;13.00;;;6.97;;
2458;SDS011;1241;50.920;6.936;2022-11-06T09:28:42;9.67;;;6.23;;
2458;SDS011;1241;50.920;6.936;2022-11-06T09:31:08;7.13;;;6.10;;
2458;SDS011;1241;50.920;6.936;2022-11-06T09:33:34;7.30;;;4.40;;
2458;SDS011;1241;50.920;6.936;2022-11-06T09:36:03;9.70;;;5.70;;
2458;SDS011;1241;50.920;6.936;2022-11-06T09:38:30;8.43;;;5.35;;
2458;SDS011;1241;50.920;6.936;2022-11-06T09:40:57;6.45;;;4.40;;
2458;SDS011;1241;50.920;6.936;2022-11-06T09:43:36;7.03;;;6.13;;
2458;SDS011;1241;50.920;6.936;2022-11-06T09:46:26;8.95;;;6.43;;
2458;SDS011;1241;50.920;6.936;2022-11-06T09:49:15;4.40;;;3.97;;
2458;SDS011;1241;50.920;6.936;2022-11-06T09:56:54;10.10;;;6.03;;
2458;SDS011;1241;50.920;6.936;2022-11-06T09:59:23;7.30;;;5.68;;
2458;SDS011;1241;50.920;6.936;2022-11-06T10:01:54;5.28;;;4.78;;
2458;SDS011;1241;50.920;6.936;2022-11-06T10:04:29;7.95;;;7.15;;
2458;SDS011;1241;50.920;6.936;2022-11-06T10:07:21;15.15;;;5.88;;
2458;SDS011;1241;50.920;6.936;2022-11-06T10:09:52;5.55;;;4.72;;
2458;SDS011;1241;50.920;6.936;2022-11-06T10:12:30;8.18;;;5.78;;
2458;SDS011;1241;50.920;6.936;2022-11-06T10:20:31;10.40;;;4.82;;
2458;SDS011;1241;50.920;6.936;2022-11-06T10:23:04;7.28;;;4.88;;
2458;SDS011;1241;50.920;6.936;2022-11-06T10:30:42;7.88;;;6.60;;
2458;SDS011;1241;50.920;6.936;2022-11-06T10:33:21;6.03;;;4.50;;
2458;SDS011;1241;50.920;6.936;2022-11-06T10:36:10;13.68;;;7.88;;
2458;SDS011;1241;50.920;6.936;2022-11-06T10:38:42;7.13;;;5.05;;
2458;SDS011;1241;50.920;6.936;2022-11-06T10:41:30;7.65;;;4.97;;
2458;SDS011;1241;50.920;6.936;2022-11-06T10:44:01;6.90;;;5.32;;
2458;SDS011;1241;50.920;6.936;2022-11-06T10:49:12;6.60;;;5.15;;
2458;SDS011;1241;50.920;6.936;2022-11-06T10:54:47;9.38;;;6.68;;
2458;SDS011;1241;50.920;6.936;2022-11-06T10:57:27;6.65;;;5.10;;
2458;SDS011;1241;50.920;6.936;2022-11-06T11:00:10;9.85;;;4.60;;
2458;SDS011;1241;50.920;6.936;2022-11-06T11:02:50;6.68;;;5.85;;
2458;SDS011;1241;50.920;6.936;2022-11-06T11:05:20;4.75;;;4.18;;
2458;SDS011;1241;50.920;6.936;2022-11-06T11:07:48;8.07;;;5.95;;
2458;SDS011;1241;50.920;6.936;2022-11-06T11:10:29;9.13;;;6.00;;
2458;SDS011;1241;50.920;6.936;2022-11-06T11:12:56;8.75;;;4.70;;
2458;SDS011;1241;50.920;6.936;2022-11-06T11:15:29;8.63;;;6.28;;
2458;SDS011;1241;50.920;6.936;2022-11-06T11:18:22;13.77;;;7.57;;
2458;SDS011;1241;50.920;6.936;2022-11-06T11:23:30;6.00;;;5.05;;
2458;SDS011;1241;50.920;6.936;2022-11-06T11:25:56;6.87;;;4.57;;
2458;SDS011;1241;50.920;6.936;2022-11-06T11:28:38;9.15;;;4.20;;
2458;SDS011;1241;50.920;6.936;2022-11-06T11:31:06;7.90;;;5.32;;
2458;SDS011;1241;50.920;6.936;2022-11-06T11:33:36;6.22;;;4.32;;
2458;SDS011;1241;50.920;6.936;2022-11-06T11:36:04;6.40;;;5.15;;
2458;SDS011;1241;50.920;6.936;2022-11-06T11:38:35;8.10;;;5.28;;
2458;SDS011;1241;50.920;6.936;2022-11-06T11:43:57;6.00;;;4.63;;
2458;SDS011;1241;50.920;6.936;2022-11-06T11:46:45;8.52;;;4.50;;
2458;SDS011;1241;50.920;6.936;2022-11-06T11:49:31;8.15;;;5.95;;
2458;SDS011;1241;50.920;6.936;2022-11-06T11:51:59;9.23;;;7.75;;
2458;SDS011;1241;50.920;6.936;2022-11-06T11:54:28;8.65;;;4.57;;
2458;SDS011;1241;50.920;6.936;2022-11-06T11:56:59;14.45;;;12.15;;
2458;SDS011;1241;50.920;6.936;2022-11-06T11:59:35;5.80;;;4.80;;
2458;SDS011;1241;50.920;6.936;2022-11-06T12:02:15;5.45;;;4.15;;
2458;SDS011;1241;50.920;6.936;2022-11-06T12:04:45;5.13;;;4.65;;
2458;SDS011;1241;50.920;6.936;2022-11-06T12:07:33;6.05;;;5.45;;
2458;SDS011;1241;50.920;6.936;2022-11-06T12:10:02;6.70;;;5.45;;
2458;SDS011;1241;50.920;6.936;2022-11-06T12:12:52;6.00;;;4.65;;
2458;SDS011;1241;50.920;6.936;2022-11-06T12:18:10;9.90;;;4.68;;
2458;SDS011;1241;50.920;6.936;2022-11-06T12:20:56;7.07;;;4.30;;
2458;SDS011;1241;50.920;6.936;2022-11-06T12:23:45;10.00;;;5.25;;
2458;SDS011;1241;50.920;6.936;2022-11-06T12:26:25;5.63;;;3.70;;
2458;SDS011;1241;50.920;6.936;2022-11-06T12:29:03;3.20;;;2.90;;
2458;SDS011;1241;50.920;6.936;2022-11-06T12:34:02;4.63;;;3.60;;
2458;SDS011;1241;50.920;6.936;2022-11-06T12:36:31;4.15;;;3.80;;
2458;SDS011;1241;50.920;6.936;2022-11-06T12:39:05;5.75;;;2.97;;
2458;SDS011;1241;50.920;6.936;2022-11-06T12:41:43;5.40;;;3.10;;
2458;SDS011;1241;50.920;6.936;2022-11-06T12:44:13;9.25;;;4.75;;
2458;SDS011;1241;50.920;6.936;2022-11-06T12:54:39;6.55;;;4.82;;
2458;SDS011;1241;50.920;6.936;2022-11-06T12:57:16;3.30;;;2.75;;
2458;SDS011;1241;50.920;6.936;2022-11-06T13:20:42;4.50;;;4.10;;
2458;SDS011;1241;50.920;6.936;2022-11-06T13:23:24;9.07;;;7.80;;
2458;SDS011;1241;50.920;6.936;2022-11-06T13:28:48;3.60;;;3.30;;
2458;SDS011;1241;50.920;6.936;2022-11-06T13:31:20;5.35;;;3.88;;
2458;SDS011;1241;50.920;6.936;2022-11-06T13:33:50;3.33;;;3.00;;
2458;SDS011;1241;50.920;6.936;2022-11-06T13:36:21;4.43;;;4.03;;
2458;SDS011;1241;50.920;6.936;2022-11-06T13:38:52;6.90;;;4.35;;
2458;SDS011;1241;50.920;6.936;2022-11-06T13:41:45;7.18;;;4.20;;
2458;SDS011;1241;50.920;6.936;2022-11-06T13:44:11;8.60;;;5.67;;
2458;SDS011;1241;50.920;6.936;2022-11-06T13:46:57;8.15;;;5.68;;
2458;SDS011;1241;50.920;6.936;2022-11-06T13:49:37;4.53;;;4.13;;
2458;SDS011;1241;50.920;6.936;2022-11-06T14:07:01;6.53;;;5.90;;
2458;SDS011;1241;50.920;6.936;2022-11-06T14:09:29;7.00;;;6.25;;
2458;SDS011;1241;50.920;6.936;2022-11-06T14:11:59;10.90;;;8.65;;
2458;SDS011;1241;50.920;6.936;2022-11-06T14:14:28;2.58;;;2.33;;
2458;SDS011;1241;50.920;6.936;2022-11-06T14:19:34;5.85;;;5.22;;
2458;SDS011;1241;50.920;6.936;2022-11-06T14:24:57;4.13;;;2.90;;
2458;SDS011;1241;50.920;6.936;2022-11-06T14:29:59;4.67;;;3.27;;
2458;SDS011;1241;50.920;6.936;2022-11-06T14:32:39;4.95;;;3.20;;
2458;SDS011;1241;50.920;6.936;2022-11-06T14:38:12;3.25;;;2.45;;
2458;SDS011;1241;50.920;6.936;2022-11-06T14:40:54;8.02;;;3.33;;
2458;SDS011;1241;50.920;6.936;2022-11-06T14:43:23;6.18;;;4.25;;
2458;SDS011;1241;50.920;6.936;2022-11-06T14:46:00;4.68;;;3.88;;
2458;SDS011;1241;50.920;6.936;2022-11-06T14:48:34;4.15;;;2.72;;
2458;SDS011;1241;50.920;6.936;2022-11-06T14:51:07;3.30;;;2.53;;
2458;SDS011;1241;50.920;6.936;2022-11-06T14:53:36;3.20;;;2.53;;
2458;SDS011;1241;50.920;6.936;2022-11-06T14:56:28;3.13;;;2.78;;
2458;SDS011;1241;50.920;6.936;2022-11-06T14:58:56;5.45;;;3.05;;
2458;SDS011;1241;50.920;6.936;2022-11-06T15:01:40;3.42;;;2.38;;
2458;SDS011;1241;50.920;6.936;2022-11-06T15:04:18;3.47;;;2.50;;
2458;SDS011;1241;50.920;6.936;2022-11-06T15:06:46;4.38;;;3.58;;
2458;SDS011;1241;50.920;6.936;2022-11-06T15:09:42;3.22;;;2.92;;
2458;SDS011;1241;50.920;6.936;2022-11-06T15:12:04;3.15;;;2.85;;
2458;SDS011;1241;50.920;6.936;2022-11-06T15:22:49;3.78;;;2.30;;
2458;SDS011;1241;50.920;6.936;2022-11-06T15:25:22;3.10;;;2.90;;
2458;SDS011;1241;50.920;6.936;2022-11-06T15:28:10;4.65;;;2.30;;
2458;SDS011;1241;50.920;6.936;2022-11-06T15:30:44;3.78;;;2.90;;
2458;SDS011;1241;50.920;6.936;2022-11-06T15:33:20;3.30;;;2.97;;
2458;SDS011;1241;50.920;6.936;2022-11-06T15:35:58;4.43;;;3.58;;
2458;SDS011;1241;50.920;6.936;2022-11-06T15:38:35;5.60;;;3.80;;
2458;SDS011;1241;50.920;6.936;2022-11-06T15:41:04;3.90;;;3.53;;
2458;SDS011;1241;50.920;6.936;2022-11-06T15:43:32;5.03;;;3.38;;
2458;SDS011;1241;50.920;6.936;2022-11-06T15:48:31;6.88;;;3.80;;
2458;SDS011;1241;50.920;6.936;2022-11-06T15:50:57;4.47;;;4.07;;
2458;SDS011;1241;50.920;6.936;2022-11-06T15:53:25;4.23;;;3.60;;
2458;SDS011;1241;50.920;6.936;2022-11-06T15:55:58;3.95;;;3.15;;
2458;SDS011;1241;50.920;6.936;2022-11-06T15:58:35;3.80;;;3.50;;
2458;SDS011;1241;50.920;6.936;2022-11-06T16:01:02;4.88;;;3.30;;
2458;SDS011;1241;50.920;6.936;2022-11-06T16:03:30;6.47;;;4.18;;
2458;SDS011;1241;50.920;6.936;2022-11-06T16:06:06;6.53;;;3.80;;
2458;SDS011;1241;50.920;6.936;2022-11-06T16:08:32;4.03;;;3.63;;
2458;SDS011;1241;50.920;6.936;2022-11-06T16:10:58;4.80;;;4.00;;
2458;SDS011;1241;50.920;6.936;2022-11-06T16:13:26;3.25;;;2.78;;
2458;SDS011;1241;50.920;6.936;2022-11-06T16:21:10;8.27;;;5.65;;
2458;SDS011;1241;50.920;6.936;2022-11-06T16:26:13;7.75;;;5.35;;
2458;SDS011;1241;50.920;6.936;2022-11-06T16:28:43;7.18;;;4.85;;
2458;SDS011;1241;50.920;6.936;2022-11-06T16:31:15;5.60;;;4.25;;
2458;SDS011;1241;50.920;6.936;2022-11-06T16:33:53;4.47;;;3.65;;
2458;SDS011;1241;50.920;6.936;2022-11-06T16:36:30;6.00;;;4.50;;
2458;SDS011;1241;50.920;6.936;2022-11-06T16:44:46;5.32;;;3.40;;
2458;SDS011;1241;50.920;6.936;2022-11-06T16:47:16;4.40;;;4.00;;
2458;SDS011;1241;50.920;6.936;2022-11-06T16:49:49;7.65;;;3.90;;
2458;SDS011;1241;50.920;6.936;2022-11-06T16:57:20;6.22;;;3.55;;
2458;SDS011;1241;50.920;6.936;2022-11-06T17:02:49;10.57;;;7.35;;
2458;SDS011;1241;50.920;6.936;2022-11-06T17:05:18;6.90;;;5.03;;
2458;SDS011;1241;50.920;6.936;2022-11-06T17:07:46;9.23;;;7.05;;
2458;SDS011;1241;50.920;6.936;2022-11-06T17:13:14;5.30;;;4.80;;
2458;SDS011;1241;50.920;6.936;2022-11-06T17:15:43;11.43;;;7.35;;
2458;SDS011;1241;50.920;6.936;2022-11-06T17:18:53;12.95;;;4.82;;
2458;SDS011;1241;50.920;6.936;2022-11-06T17:21:02;15.80;;;10.73;;
2458;SDS011;1241;50.920;6.936;2022-11-06T17:23:30;11.38;;;9.32;;
2458;SDS011;1241;50.920;6.936;2022-11-06T17:26:01;12.07;;;8.65;;
2458;SDS011;1241;50.920;6.936;2022-11-06T17:28:30;9.13;;;7.68;;
2458;SDS011;1241;50.920;6.936;2022-11-06T17:30:57;9.85;;;7.03;;
2458;SDS011;1241;50.920;6.936;2022-11-06T17:33:23;25.13;;;7.43;;
2458;SDS011;1241;50.920;6.936;2022-11-06T17:35:49;8.97;;;5.77;;
2458;SDS011;1241;50.920;6.936;2022-11-06T17:38:15;5.33;;;4.40;;
2458;SDS011;1241;50.920;6.936;2022-11-06T17:40:42;9.85;;;6.90;;
2458;SDS011;1241;50.920;6.936;2022-11-06T17:43:09;9.55;;;6.50;;
2458;SDS011;1241;50.920;6.936;2022-11-06T17:45:36;7.18;;;6.47;;
2458;SDS011;1241;50.920;6.936;2022-11-06T17:48:03;6.90;;;5.55;;
2458;SDS011;1241;50.920;6.936;2022-11-06T17:50:30;5.78;;;5.18;;
2458;SDS011;1241;50.920;6.936;2022-11-06T17:53:16;8.95;;;6.22;;
2458;SDS011;1241;50.920;6.936;2022-11-06T17:55:42;6.43;;;5.40;;
2458;SDS011;1241;50.920;6.936;2022-11-06T17:58:07;7.87;;;6.10;;
2458;SDS011;1241;50.920;6.936;2022-11-06T18:00:33;9.70;;;7.87;;
2458;SDS011;1241;50.920;6.936;2022-11-06T18:03:00;11.25;;;9.00;;
2458;SDS011;1241;50.920;6.936;2022-11-06T18:05:26;9.90;;;8.23;;
2458;SDS011;1241;50.920;6.936;2022-11-06T18:07:51;7.47;;;6.17;;